Time;durP1;ratioP1;P1;durP2;ratioP2;P2;SDS_P1;SDS_P2;PMS_P1;PMS_P2;Temp;Humidity;BMP_temperature;BMP_pressure;BME280_temperature;BME280_humidity;BME280_pressure;Samples;Min_cycle;Max_cycle;Signal;HPM_P1;HPM_P2
2023/05/18 00:02:08;;;;;;;41.83;14.43;;;;;;;;;;5092326;28;20031;-82
2023/05/18 00:04:35;;;;;;;32.28;13.85;;;;;;;;;;5099152;28;20399;-80
2023/05/18 00:07:05;;;;;;;31.73;13.20;;;;;;;;;;5074004;28;20044;-80
2023/05/18 00:09:32;;;;;;;31.27;13.35;;;;;;;;;;5090748;28;20039;-81
2023/05/18 00:11:59;;;;;;;35.13;13.55;;;;;;;;;;5093397;28;20020;-80
2023/05/18 00:14:25;;;;;;;39.85;14.27;;;;;;;;;;5101995;28;20020;-80
2023/05/18 00:16:52;;;;;;;29.08;14.23;;;;;;;;;;5097757;28;20040;-81
2023/05/18 00:19:19;;;;;;;26.08;14.00;;;;;;;;;;5095683;28;20520;-80
2023/05/18 00:21:46;;;;;;;34.20;14.35;;;;;;;;;;5095612;28;20040;-80
2023/05/18 00:24:13;;;;;;;32.72;14.02;;;;;;;;;;5095624;28;20020;-81
2023/05/18 00:26:40;;;;;;;29.23;13.43;;;;;;;;;;5094066;28;20031;-80
2023/05/18 00:29:06;;;;;;;37.50;13.30;;;;;;;;;;5095448;28;20408;-80
2023/05/18 00:31:35;;;;;;;31.23;13.50;;;;;;;;;;5095064;28;20088;-79
2023/05/18 00:34:11;;;;;;;34.42;13.57;;;;;;;;;;5095297;28;20016;-81
2023/05/18 00:36:38;;;;;;;28.98;14.35;;;;;;;;;;5094771;28;20016;-79
2023/05/18 00:39:05;;;;;;;37.00;13.23;;;;;;;;;;5095239;28;20031;-79
2023/05/18 00:41:31;;;;;;;28.77;13.10;;;;;;;;;;5095401;28;20381;-80
2023/05/18 00:43:58;;;;;;;43.90;14.83;;;;;;;;;;5095212;28;20390;-79
2023/05/18 00:46:25;;;;;;;42.00;14.23;;;;;;;;;;5103216;28;20096;-79
2023/05/18 00:48:51;;;;;;;35.83;13.48;;;;;;;;;;5091887;28;20492;-81
2023/05/18 00:51:22;;;;;;;38.58;14.50;;;;;;;;;;5094954;28;20024;-79
2023/05/18 00:53:48;;;;;;;31.42;13.68;;;;;;;;;;5095048;28;20507;-80
2023/05/18 00:56:15;;;;;;;34.57;13.50;;;;;;;;;;5095029;28;20120;-79
2023/05/18 00:58:41;;;;;;;42.13;14.50;;;;;;;;;;5102173;28;20062;-79
2023/05/18 01:01:08;;;;;;;33.60;14.35;;;;;;;;;;5102303;28;20477;-80
2023/05/18 01:03:37;;;;;;;41.53;15.60;;;;;;;;;;5093532;28;20036;-80
2023/05/18 01:06:04;;;;;;;34.72;14.65;;;;;;;;;;5098076;28;20053;-82
2023/05/18 01:08:30;;;;;;;;;;;;;;;;;;5097639;28;20032;-79
2023/05/18 01:11:05;;;;;;;28.20;13.50;;;;;;;;;;5095878;28;19908;-80
2023/05/18 01:13:46;;;;;;;24.38;13.60;;;;;;;;;;5080386;28;20479;-79
2023/05/18 01:16:15;;;;;;;28.00;13.00;;;;;;;;;;5095378;28;20023;-80
2023/05/18 01:18:47;;;;;;;26.10;13.40;;;;;;;;;;5079912;28;20031;-78
2023/05/18 01:21:20;;;;;;;35.60;15.45;;;;;;;;;;5086223;28;20538;-81
2023/05/18 01:23:47;;;;;;;29.30;14.13;;;;;;;;;;5093827;28;20024;-81
2023/05/18 01:26:15;;;;;;;27.67;13.43;;;;;;;;;;5096659;28;20373;-81
2023/05/18 01:28:45;;;;;;;32.47;14.13;;;;;;;;;;5105294;28;20100;-80
2023/05/18 01:31:11;;;;;;;32.30;15.60;;;;;;;;;;5099480;28;20059;-78
2023/05/18 01:33:37;;;;;;;36.63;14.32;;;;;;;;;;5097182;28;20104;-80
2023/05/18 01:36:03;;;;;;;37.13;15.23;;;;;;;;;;5096531;28;20473;-81
2023/05/18 01:38:30;;;;;;;40.03;14.82;;;;;;;;;;5095318;28;20028;-80
2023/05/18 01:41:12;;;;;;;23.02;13.02;;;;;;;;;;5095836;28;20017;-80
2023/05/18 01:43:42;;;;;;;28.02;15.23;;;;;;;;;;5095175;28;20032;-80
2023/05/18 01:46:17;;;;;;;34.03;15.32;;;;;;;;;;5094370;28;20029;-80
2023/05/18 01:48:48;;;;;;;27.25;14.05;;;;;;;;;;5092830;28;20020;-80
2023/05/18 01:51:15;;;;;;;31.88;14.15;;;;;;;;;;5095049;28;20047;-80
2023/05/18 01:53:44;;;;;;;25.55;15.00;;;;;;;;;;5098527;28;20020;-78
2023/05/18 01:56:11;;;;;;;34.55;14.65;;;;;;;;;;5104191;28;20124;-79
2023/05/18 01:58:38;;;;;;;26.15;14.63;;;;;;;;;;5098653;28;20085;-80
2023/05/18 02:01:05;;;;;;;40.30;15.10;;;;;;;;;;5096154;28;20051;-80
2023/05/18 02:03:32;;;;;;;27.02;13.55;;;;;;;;;;5096316;28;20036;-80
2023/05/18 02:05:58;;;;;;;30.05;15.02;;;;;;;;;;5098533;28;20024;-78
2023/05/18 02:08:24;;;;;;;33.03;16.40;;;;;;;;;;5105657;28;20052;-78
2023/05/18 02:10:50;;;;;;;33.60;15.65;;;;;;;;;;5093951;28;20024;-79
2023/05/18 02:13:16;;;;;;;27.05;14.82;;;;;;;;;;5080200;28;20089;-80
2023/05/18 02:15:43;;;;;;;41.10;15.98;;;;;;;;;;5093903;28;20014;-81
2023/05/18 02:18:10;;;;;;;38.03;16.75;;;;;;;;;;5095411;28;20035;-79
2023/05/18 02:20:36;;;;;;;30.13;15.60;;;;;;;;;;5094456;28;20072;-80
2023/05/18 02:23:03;;;;;;;36.72;17.83;;;;;;;;;;5093307;28;20068;-79
2023/05/18 02:25:29;;;;;;;45.50;17.85;;;;;;;;;;5092972;28;20373;-79
2023/05/18 02:27:55;;;;;;;33.88;16.70;;;;;;;;;;5099813;28;20092;-79
2023/05/18 02:30:22;;;;;;;29.52;15.63;;;;;;;;;;5093237;28;20024;-80
2023/05/18 02:32:48;;;;;;;32.20;15.30;;;;;;;;;;5092710;28;20377;-79
2023/05/18 02:35:15;;;;;;;40.08;15.52;;;;;;;;;;5092927;28;20031;-79
2023/05/18 02:37:43;;;;;;;31.95;16.00;;;;;;;;;;5092594;28;20373;-80
2023/05/18 02:40:14;;;;;;;30.02;14.98;;;;;;;;;;5093497;28;20039;-81
2023/05/18 02:42:40;;;;;;;32.55;16.80;;;;;;;;;;5096044;28;20034;-79
2023/05/18 02:45:07;;;;;;;33.33;13.70;;;;;;;;;;5093526;28;20020;-81
2023/05/18 02:47:33;;;;;;;28.25;14.18;;;;;;;;;;5093078;28;20024;-81
2023/05/18 02:50:00;;;;;;;39.50;14.55;;;;;;;;;;5074755;28;20048;-82
2023/05/18 02:52:26;;;;;;;30.77;13.82;;;;;;;;;;5080187;28;20027;-81
2023/05/18 02:54:53;;;;;;;29.48;14.82;;;;;;;;;;5092877;28;20090;-81
2023/05/18 02:57:20;;;;;;;30.85;14.57;;;;;;;;;;5074110;28;20040;-80
2023/05/18 02:59:46;;;;;;;31.88;15.00;;;;;;;;;;5088300;28;20036;-80
2023/05/18 03:02:16;;;;;;;26.65;14.98;;;;;;;;;;5092672;28;20526;-80
2023/05/18 03:04:42;;;;;;;33.78;15.15;;;;;;;;;;5083314;28;20028;-80
2023/05/18 03:07:09;;;;;;;32.78;16.13;;;;;;;;;;5111285;28;20040;-80
2023/05/18 03:09:35;;;;;;;31.45;15.93;;;;;;;;;;5114067;28;20396;-80
2023/05/18 03:12:02;;;;;;;23.95;13.93;;;;;;;;;;5097983;28;20024;-80
2023/05/18 03:14:28;;;;;;;32.50;15.70;;;;;;;;;;5110932;28;20381;-80
2023/05/18 03:16:56;;;;;;;31.20;15.05;;;;;;;;;;5097110;28;20070;-80
2023/05/18 03:19:22;;;;;;;32.67;14.82;;;;;;;;;;5094102;28;20496;-80
2023/05/18 03:21:49;;;;;;;30.20;14.80;;;;;;;;;;5097013;28;20024;-81
2023/05/18 03:24:15;;;;;;;32.95;16.35;;;;;;;;;;5104030;28;20035;-81
2023/05/18 03:26:43;;;;;;;27.80;16.30;;;;;;;;;;5110172;28;20049;-81
2023/05/18 03:29:10;;;;;;;31.45;15.98;;;;;;;;;;5111321;28;20389;-81
2023/05/18 03:31:36;;;;;;;28.55;16.60;;;;;;;;;;5093472;28;20016;-81
2023/05/18 03:34:02;;;;;;;28.63;15.55;;;;;;;;;;5095260;28;20075;-79
2023/05/18 03:36:28;;;;;;;38.53;15.35;;;;;;;;;;5095897;28;20038;-80
2023/05/18 03:38:54;;;;;;;36.10;16.55;;;;;;;;;;5092180;28;20020;-80
2023/05/18 03:41:20;;;;;;;38.55;15.80;;;;;;;;;;5092509;28;20028;-80
2023/05/18 03:43:47;;;;;;;35.22;15.23;;;;;;;;;;5096171;28;20035;-80
2023/05/18 03:46:13;;;;;;;36.20;15.52;;;;;;;;;;5092228;28;20020;-81
2023/05/18 03:48:39;;;;;;;32.70;16.40;;;;;;;;;;5095217;28;20381;-80
2023/05/18 03:51:05;;;;;;;27.02;15.50;;;;;;;;;;5096807;28;20047;-82
2023/05/18 03:53:32;;;;;;;29.40;14.57;;;;;;;;;;5099957;28;20065;-80
2023/05/18 03:55:58;;;;;;;26.55;14.20;;;;;;;;;;5096259;28;20024;-79
2023/05/18 03:58:26;;;;;;;30.42;15.52;;;;;;;;;;5096269;28;20031;-81
2023/05/18 04:00:52;;;;;;;;;;;;;;;;;;5105596;28;20442;-80
2023/05/18 04:03:20;;;;;;;23.48;15.07;;;;;;;;;;5095992;28;19962;-79
2023/05/18 04:05:47;;;;;;;20.65;13.77;;;;;;;;;;5095994;28;20039;-80
2023/05/18 04:08:14;;;;;;;26.88;15.38;;;;;;;;;;5097497;28;20052;-82
2023/05/18 04:10:43;;;;;;;28.13;15.15;;;;;;;;;;5097224;28;20103;-81
2023/05/18 04:13:10;;;;;;;25.52;15.50;;;;;;;;;;5095702;28;20144;-82
2023/05/18 04:15:36;;;;;;;29.85;14.27;;;;;;;;;;5081724;28;20073;-81
2023/05/18 04:18:03;;;;;;;29.87;14.90;;;;;;;;;;5084317;28;20033;-80
2023/05/18 04:20:29;;;;;;;25.15;14.45;;;;;;;;;;5094149;28;20459;-81
2023/05/18 04:22:59;;;;;;;19.55;14.60;;;;;;;;;;5099169;28;20056;-82
2023/05/18 04:25:28;;;;;;;24.63;14.00;;;;;;;;;;5097477;28;20039;-81
2023/05/18 04:27:54;;;;;;;22.33;14.77;;;;;;;;;;5096046;28;20153;-83
2023/05/18 04:30:23;;;;;;;30.53;14.67;;;;;;;;;;5095101;28;20544;-82
2023/05/18 04:32:50;;;;;;;23.80;14.07;;;;;;;;;;5095399;28;20119;-80
2023/05/18 04:35:17;;;;;;;27.92;14.35;;;;;;;;;;5095996;28;20048;-80
2023/05/18 04:37:43;;;;;;;21.80;13.40;;;;;;;;;;5098215;28;20016;-82
2023/05/18 04:40:12;;;;;;;21.30;12.73;;;;;;;;;;5099448;28;20050;-81
2023/05/18 04:42:44;;;;;;;18.17;12.48;;;;;;;;;;5079088;28;20024;-81
2023/05/18 04:45:20;;;;;;;16.98;11.10;;;;;;;;;;5095627;28;20024;-81
2023/05/18 04:47:51;;;;;;;22.48;12.32;;;;;;;;;;5095869;28;20019;-81
2023/05/18 04:50:18;;;;;;;25.95;13.00;;;;;;;;;;5084999;28;20044;-82
2023/05/18 04:52:47;;;;;;;20.98;11.48;;;;;;;;;;5077640;28;20020;-82
2023/05/18 04:55:14;;;;;;;20.10;10.88;;;;;;;;;;5095756;28;20038;-81
2023/05/18 04:57:41;;;;;;;19.95;11.27;;;;;;;;;;5096409;28;20028;-80
2023/05/18 05:00:08;;;;;;;14.77;10.32;;;;;;;;;;5093674;28;20040;-82
2023/05/18 05:02:35;;;;;;;21.92;11.52;;;;;;;;;;5095031;28;20071;-81
2023/05/18 05:05:00;;;;;;;20.37;11.40;;;17.10;62.50;;;;;;5100837;28;20024;-81
2023/05/18 05:07:26;;;;;;;25.98;11.25;;;25.30;49.50;;;;;;5094456;28;20047;-82
2023/05/18 05:09:52;;;;;;;15.10;9.60;;;26.20;47.70;;;;;;5076523;28;20508;-80
2023/05/18 05:12:18;;;;;;;14.45;8.95;;;27.20;44.90;;;;;;5095023;28;20378;-82
2023/05/18 05:14:44;;;;;;;24.77;9.00;;;27.60;43.20;;;;;;5095066;28;20048;-81
2023/05/18 05:17:11;;;;;;;14.25;8.70;;;28.00;42.50;;;;;;5102380;28;20044;-79
2023/05/18 05:19:37;;;;;;;14.50;8.80;;;28.30;41.70;;;;;;5100767;28;20088;-81
2023/05/18 05:22:03;;;;;;;17.90;9.50;;;29.00;41.80;;;;;;5082429;28;20110;-83
2023/05/18 05:24:28;;;;;;;14.98;9.25;;;29.70;40.60;;;;;;5075108;28;20039;-82
2023/05/18 05:26:54;;;;;;;20.70;9.60;;;;;;;;;;5076693;28;20060;-82
2023/05/18 05:29:20;;;;;;;34.67;10.47;;;30.60;40.00;;;;;;5113445;28;20088;-84
2023/05/18 05:31:46;;;;;;;17.57;7.33;;;32.30;38.70;;;;;;5077701;28;20028;-82
2023/05/18 05:34:12;;;;;;;14.93;6.40;;;33.00;37.30;;;;;;5103776;28;20020;-80
2023/05/18 05:36:38;;;;;;;9.23;5.57;;;33.50;35.40;;;;;;5094562;28;20031;-83
2023/05/18 05:39:04;;;;;;;12.90;5.50;;;33.80;33.90;;;;;;5076224;28;20020;-83
2023/05/18 05:41:30;;;;;;;12.60;5.80;;;33.60;33.60;;;;;;5097825;28;20024;-81
2023/05/18 05:43:56;;;;;;;8.53;4.60;;;33.70;34.00;;;;;;5080002;28;20033;-82
2023/05/18 05:46:21;;;;;;;8.87;4.97;;;33.70;32.90;;;;;;5103065;28;20362;-82
2023/05/18 05:48:47;;;;;;;7.87;4.47;;;33.00;32.50;;;;;;5108732;28;20024;-80
2023/05/18 05:51:13;;;;;;;4.97;4.23;;;32.50;33.00;;;;;;5079901;28;20390;-85
2023/05/18 05:53:39;;;;;;;8.37;4.77;;;31.80;33.20;;;;;;5075697;28;20474;-82
2023/05/18 05:56:07;;;;;;;8.35;4.97;;;31.20;34.00;;;;;;5078182;28;20080;-80
2023/05/18 05:58:33;;;;;;;4.88;4.38;;;31.30;34.20;;;;;;5079058;28;20063;-80
2023/05/18 06:00:58;;;;;;;6.50;3.80;;;31.70;33.30;;;;;;5075277;28;20074;-80
2023/05/18 06:03:25;;;;;;;7.17;4.27;;;31.50;33.40;;;;;;5083636;28;20613;-80
2023/05/18 06:05:51;;;;;;;9.43;4.50;;;32.30;33.30;;;;;;5103881;28;20069;-80
2023/05/18 06:08:16;;;;;;;6.97;4.67;;;33.70;32.60;;;;;;5094268;28;20407;-82
2023/05/18 06:10:42;;;;;;;9.50;4.70;;;36.00;31.60;;;;;;5093143;28;20020;-80
2023/05/18 06:13:08;;;;;;;6.10;4.30;;;36.60;30.80;;;;;;5093518;28;20385;-82
2023/05/18 06:15:34;;;;;;;9.47;4.10;;;37.80;29.80;;;;;;5093214;28;20021;-80
2023/05/18 06:18:00;;;;;;;6.47;4.10;;;38.20;29.30;;;;;;5092895;28;20846;-79
2023/05/18 06:20:28;;;;;;;4.70;4.20;;;37.90;28.80;;;;;;5093788;28;20042;-80
2023/05/18 06:22:55;;;;;;;6.35;4.20;;;36.70;28.90;;;;;;5094761;28;20093;-80
2023/05/18 06:25:23;;;;;;;7.82;4.57;;;35.90;29.60;;;;;;5106788;28;20057;-79
2023/05/18 06:27:49;;;;;;;7.72;4.50;;;36.50;29.70;;;;;;5112077;28;20024;-81
2023/05/18 06:30:15;;;;;;;5.38;4.53;;;37.40;29.20;;;;;;5099516;28;20028;-81
2023/05/18 06:32:41;;;;;;;;;;;37.80;28.80;;;;;;5093368;28;20369;-81
2023/05/18 06:35:07;;;;;;;7.82;4.28;;;38.30;29.60;;;;;;5093266;28;19911;-81
2023/05/18 06:37:33;;;;;;;8.02;4.50;;;38.80;28.30;;;;;;5070437;28;20111;-80
2023/05/18 06:39:59;;;;;;;6.53;4.40;;;38.90;27.90;;;;;;5084245;28;20107;-81
2023/05/18 06:42:24;;;;;;;6.70;4.28;;;37.20;28.40;;;;;;5091741;28;20054;-80
2023/05/18 06:44:50;;;;;;;5.13;4.18;;;36.70;28.90;;;;;;5094523;28;20089;-80
2023/05/18 06:47:16;;;;;;;5.88;4.43;;;36.50;28.90;;;;;;5100269;28;20044;-81
2023/05/18 06:49:42;;;;;;;5.55;3.92;;;36.40;28.90;;;;;;5100349;28;20058;-79
2023/05/18 06:52:08;;;;;;;6.32;3.88;;;36.40;29.10;;;;;;5100625;28;20024;-83
2023/05/18 06:54:37;;;;;;;5.93;3.92;;;36.40;28.60;;;;;;5075169;28;20024;-80
2023/05/18 06:57:03;;;;;;;7.35;3.65;;;36.30;28.90;;;;;;5085308;28;20412;-79
2023/05/18 06:59:29;;;;;;;7.97;5.30;;;36.90;28.50;;;;;;5096850;28;20031;-81
2023/05/18 07:01:55;;;;;;;5.03;4.00;;;39.00;28.20;;;;;;5092338;28;20115;-82
2023/05/18 07:04:21;;;;;;;7.40;4.20;;;39.20;28.30;;;;;;5092431;28;20106;-82
2023/05/18 07:06:47;;;;;;;6.18;4.03;;;;;;;;;;5092724;28;20492;-82
2023/05/18 07:09:12;;;;;;;;;;;42.00;26.80;;;;;;5094416;28;20024;-83
2023/05/18 07:11:41;;;;;;;4.70;3.72;;;41.70;27.20;;;;;;5105796;28;19949;-82
2023/05/18 07:14:07;;;;;;;7.88;3.97;;;41.80;26.40;;;;;;5108326;28;20534;-81
2023/05/18 07:16:32;;;;;;;;;;;41.30;26.50;;;;;;5082786;28;20036;-80
2023/05/18 07:18:58;;;;;;;5.10;3.63;;;41.40;27.30;;;;;;5092211;28;19946;-80
2023/05/18 07:21:25;;;;;;;5.90;3.38;;;40.00;26.70;;;;;;5092074;28;20019;-82
2023/05/18 07:23:51;;;;;;;5.50;3.40;;;39.20;27.00;;;;;;5091517;28;20058;-81
2023/05/18 07:26:18;;;;;;;6.43;3.20;;;38.90;27.70;;;;;;5092078;28;20501;-81
2023/05/18 07:28:45;;;;;;;11.95;4.38;;;39.20;27.00;;;;;;5091892;28;20035;-81
2023/05/18 07:31:10;;;;;;;;;;;39.40;27.50;;;;;;5092739;28;20508;-81
2023/05/18 07:33:36;;;;;;;6.28;3.72;;;40.90;27.70;;;;;;5104749;28;19907;-81
2023/05/18 07:36:02;;;;;;;8.00;4.22;;;40.30;26.70;;;;;;5091987;28;20023;-80
2023/05/18 07:38:28;;;;;;;5.65;3.55;;;40.80;26.60;;;;;;5091813;28;20031;-81
2023/05/18 07:40:53;;;;;;;;;;;41.70;26.60;;;;;;5092616;28;20087;-80
2023/05/18 07:43:19;;;;;;;3.20;2.83;;;42.90;27.00;;;;;;5092335;28;20353;-81
2023/05/18 07:45:45;;;;;;;4.28;3.75;;;41.00;25.90;;;;;;5093640;28;20520;-82
2023/05/18 07:48:11;;;;;;;8.45;3.83;;;40.00;26.80;;;;;;5091987;28;20028;-81
2023/05/18 07:50:37;;;;;;;6.57;4.00;;;40.80;26.70;;;;;;5092149;28;20052;-81
2023/05/18 07:53:02;;;;;;;;;;;41.70;26.60;;;;;;5092833;28;20094;-82
2023/05/18 07:55:28;;;;;;;;;;;42.60;26.80;;;;;;5074071;28;19910;-82
2023/05/18 07:57:53;;;;;;;;;;;43.70;26.90;;;;;;5077907;28;19938;-82
2023/05/18 08:00:19;;;;;;;;;;;44.80;26.80;;;;;;5092755;28;19999;-82
2023/05/18 08:02:45;;;;;;;;;;;44.90;26.30;;;;;;5092188;28;20487;-82
2023/05/18 08:05:11;;;;;;;;;;;44.90;26.30;;;;;;5102243;28;19941;-83
2023/05/18 08:07:36;;;;;;;;;;;45.40;26.30;;;;;;5073962;28;20003;-80
2023/05/18 08:10:02;;;;;;;;;;;45.60;26.20;;;;;;5092197;28;20054;-82
2023/05/18 08:12:28;;;;;;;;;;;45.70;25.80;;;;;;5092303;28;19904;-80
2023/05/18 08:14:55;;;;;;;;;;;45.60;25.60;;;;;;5073822;28;19976;-82
2023/05/18 08:17:20;;;;;;;;;;;45.50;25.50;;;;;;5085214;28;20011;-82
2023/05/18 08:19:46;;;;;;;;;;;45.30;25.60;;;;;;5074119;28;19973;-82
2023/05/18 08:22:13;;;;;;;;;;;45.80;25.60;;;;;;5092467;28;20306;-81
2023/05/18 08:24:38;;;;;;;;;;;44.50;25.20;;;;;;5092695;28;20296;-81
2023/05/18 08:27:07;;;;;;;;;;;41.10;25.30;;;;;;5093627;28;19998;-81
2023/05/18 08:29:32;;;;;;;;;;;39.80;26.50;;;;;;5093675;28;19915;-82
2023/05/18 08:31:58;;;;;;;;;;;38.90;26.30;;;;;;5093605;28;19904;-81
2023/05/18 08:34:24;;;;;;;;;;;38.80;26.70;;;;;;5092731;28;19914;-82
2023/05/18 08:36:51;;;;;;;;;;;40.20;26.80;;;;;;5096805;28;20394;-83
2023/05/18 08:39:17;;;;;;;;;;;40.70;26.30;;;;;;5096230;28;20403;-81
2023/05/18 08:41:57;;;;;;;;;;;40.00;26.30;;;;;;5096133;28;19904;-81
2023/05/18 08:44:39;;;;;;;;;;;40.00;26.60;;;;;;5096214;28;19963;-82
2023/05/18 08:47:08;;;;;;;;;;;41.00;26.70;;;;;;5099397;28;19910;-81
2023/05/18 08:49:33;;;;;;;;;;;42.00;26.40;;;;;;5107187;28;20292;-82
2023/05/18 08:52:02;;;;;;;;;;;42.50;26.00;;;;;;5089782;28;19904;-83
2023/05/18 08:54:29;;;;;;;;;;;43.10;26.10;;;;;;5097864;28;19904;-81
2023/05/18 08:56:55;;;;;;;;;;;44.00;25.90;;;;;;5077373;28;20434;-82
2023/05/18 08:59:25;;;;;;;;;;;44.60;25.40;;;;;;5096260;28;20288;-84
2023/05/18 09:01:54;;;;;;;;;;;44.70;25.20;;;;;;5079517;28;19961;-84
2023/05/18 09:04:22;;;;;;;;;;;44.20;24.90;;;;;;5111812;28;19916;-82
2023/05/18 09:06:48;;;;;;;;;;;44.10;25.00;;;;;;5111301;28;19916;-82
2023/05/18 09:09:15;;;;;;;;;;;;;;;;;;5097288;28;20000;-81
2023/05/18 09:11:40;;;;;;;;;;;43.10;25.10;;;;;;5095987;28;20311;-83
2023/05/18 09:14:06;;;;;;;;;;;41.80;25.50;;;;;;5095579;28;19943;-83
2023/05/18 09:16:32;;;;;;;;;;;41.00;25.50;;;;;;5095680;28;19904;-84
2023/05/18 09:18:58;;;;;;;;;;;40.60;25.80;;;;;;5095380;28;19904;-82
2023/05/18 09:21:25;;;;;;;;;;;40.60;25.90;;;;;;5094395;28;19927;-81
2023/05/18 09:23:50;;;;;;;;;;;39.40;25.70;;;;;;5097170;28;19923;-82
2023/05/18 09:26:17;;;;;;;;;;;38.00;26.00;;;;;;5094948;28;19904;-83
2023/05/18 09:28:44;;;;;;;;;;;36.70;26.90;;;;;;5094990;28;20299;-83
2023/05/18 09:31:15;;;;;;;;;;;37.00;27.60;;;;;;5095022;28;19908;-82
2023/05/18 09:33:42;;;;;;;;;;;38.70;27.50;;;;;;5094688;28;19908;-82
2023/05/18 09:36:08;;;;;;;;;;;39.90;26.70;;;;;;5076580;28;20365;-81
2023/05/18 09:38:39;;;;;;;;;;;39.60;26.20;;;;;;5094640;28;19904;-82
2023/05/18 09:41:16;;;;;;;;;;;39.80;26.20;;;;;;5106466;28;19916;-82
2023/05/18 09:43:42;;;;;;;;;;;38.60;26.00;;;;;;5094667;28;19912;-81
2023/05/18 09:46:09;;;;;;;;;;;36.70;26.40;;;;;;5096366;28;19914;-82
2023/05/18 09:48:36;;;;;;;;;;;35.30;27.10;;;;;;5095893;28;19908;-81
2023/05/18 09:51:03;;;;;;;;;;;34.10;27.80;;;;;;5109029;28;19908;-82
2023/05/18 09:53:29;;;;;;;;;;;33.70;28.40;;;;;;5099990;28;19944;-82
2023/05/18 09:55:55;;;;;;;;;;;33.60;28.30;;;;;;5082868;28;19912;-83
2023/05/18 09:58:20;;;;;;;;;;;32.80;28.50;;;;;;5096912;28;19908;-81
2023/05/18 10:00:52;;;;;;;;;;;31.80;29.20;;;;;;5077849;28;20331;-81
2023/05/18 10:03:20;;;;;;;;;;;31.00;29.90;;;;;;5094694;28;19950;-81
2023/05/18 10:05:46;;;;;;;;;;;31.60;30.50;;;;;;5083892;28;19911;-81
2023/05/18 10:08:13;;;;;;;;;;;33.60;30.00;;;;;;5094608;28;19931;-82
2023/05/18 10:10:43;;;;;;;;;;;35.20;29.00;;;;;;5094601;28;19977;-82
2023/05/18 10:13:13;;;;;;;;;;;35.70;28.40;;;;;;5094768;28;19965;-81
2023/05/18 10:15:45;;;;;;;;;;;36.40;28.40;;;;;;5082115;28;19904;-82
2023/05/18 10:18:11;;;;;;;;;;;37.80;28.20;;;;;;5094605;28;19952;-82
2023/05/18 10:20:37;;;;;;;;;;;38.70;28.00;;;;;;5084766;28;20365;-81
2023/05/18 10:23:04;;;;;;;;;;;39.50;27.20;;;;;;5094111;28;19912;-81
2023/05/18 10:25:31;;;;;;;;;;;38.60;26.90;;;;;;5094389;28;19908;-81
2023/05/18 10:27:59;;;;;;;;;;;37.20;27.00;;;;;;5094168;28;19973;-82
2023/05/18 10:30:25;;;;;;;;;;;34.60;27.40;;;;;;5094009;28;19984;-81
2023/05/18 10:32:53;;;;;;;;;;;32.40;28.40;;;;;;5077204;28;20334;-81
2023/05/18 10:35:22;;;;;;;;;;;31.10;29.10;;;;;;5099459;28;19915;-82
2023/05/18 10:37:49;;;;;;;;;;;30.50;29.80;;;;;;5099553;28;20284;-80
2023/05/18 10:40:16;;;;;;;;;;;30.00;30.10;;;;;;5105589;28;19991;-80
2023/05/18 10:42:42;;;;;;;;;;;29.50;31.10;;;;;;5101701;28;19950;-80
2023/05/18 10:45:08;;;;;;;;;;;29.00;31.60;;;;;;5096163;28;19926;-81
2023/05/18 10:47:38;;;;;;;;;;;28.80;31.70;;;;;;5094259;28;19908;-79
2023/05/18 10:50:04;;;;;;;;;;;28.70;31.60;;;;;;5093773;28;19904;-81
2023/05/18 10:52:30;;;;;;;;;;;28.70;32.00;;;;;;5093368;28;20249;-82
2023/05/18 10:54:57;;;;;;;;;;;28.50;32.30;;;;;;5095796;28;19904;-81
2023/05/18 10:57:23;;;;;;;;;;;28.20;32.50;;;;;;5083750;28;19915;-81
2023/05/18 10:59:48;;;;;;;;;;;28.00;32.80;;;;;;5085858;28;19916;-81
2023/05/18 11:02:16;;;;;;;;;;;28.00;32.60;;;;;;5095882;28;20840;-81
2023/05/18 11:04:42;;;;;;;;;;;28.00;32.90;;;;;;5093877;28;19912;-82
2023/05/18 11:07:11;;;;;;;;;;;28.00;32.60;;;;;;5074986;28;19942;-81
2023/05/18 11:09:39;;;;;;;;;;;28.00;32.80;;;;;;5093154;28;19911;-80
2023/05/18 11:12:10;;;;;;;;;;;28.00;32.80;;;;;;5091278;28;19907;-81
2023/05/18 11:14:45;;;;;;;;;;;27.90;33.00;;;;;;5093008;28;19960;-81
2023/05/18 11:17:21;;;;;;;;;;;27.90;33.70;;;;;;5084885;28;19912;-82
2023/05/18 11:19:59;;;;;;;;;;;27.90;33.70;;;;;;5092715;28;19904;-81
2023/05/18 11:22:38;;;;;;;;;;;27.80;33.90;;;;;;5093222;28;19908;-81
2023/05/18 11:25:07;;;;;;;;;;;27.70;33.80;;;;;;5075338;28;19912;-80
2023/05/18 11:27:32;;;;;;;;;;;27.50;33.80;;;;;;5093367;28;20383;-80
2023/05/18 11:29:58;;;;;;;;;;;27.40;33.70;;;;;;5075356;28;20015;-80
2023/05/18 11:32:26;;;;;;;;;;;27.50;33.70;;;;;;5096054;28;19915;-81
2023/05/18 11:34:52;;;;;;;;;;;27.60;34.00;;;;;;5093014;28;19948;-80
2023/05/18 11:37:46;;;;;;;;;;;27.50;34.10;;;;;;5093562;28;20090;-80
2023/05/18 11:40:15;;;;;;;;;;;27.60;34.30;;;;;;5092888;28;19908;-82
2023/05/18 11:42:40;;;;;;;;;;;27.70;34.50;;;;;;5092447;28;19999;-80
2023/05/18 11:45:09;;;;;;;;;;;27.50;34.30;;;;;;5092521;28;19988;-82
2023/05/18 11:47:36;;;;;;;;;;;27.40;34.40;;;;;;5092726;28;19911;-81
2023/05/18 11:50:05;;;;;;;;;;;27.30;34.80;;;;;;5098150;28;19908;-82
2023/05/18 11:52:31;;;;;;;;;;;27.20;34.90;;;;;;5098431;28;19908;-82
2023/05/18 11:54:57;;;;;;;;;;;27.20;35.10;;;;;;5093924;28;19952;-81
2023/05/18 11:57:38;;;;;;;;;;;27.00;35.20;;;;;;5084806;28;20383;-79
2023/05/18 12:00:08;;;;;;;;;;;27.10;35.30;;;;;;5098266;28;19908;-81
2023/05/18 12:02:33;;;;;;;;;;;27.00;35.00;;;;;;5094406;28;19904;-80
2023/05/18 12:05:01;;;;;;;;;;;27.00;35.00;;;;;;5094577;28;19915;-81
2023/05/18 12:07:33;;;;;;;;;;;27.00;35.10;;;;;;5078115;28;19943;-81
2023/05/18 12:10:03;;;;;;;;;;;27.00;35.20;;;;;;5095757;28;19904;-80
2023/05/18 12:12:29;;;;;;;;;;;27.10;35.30;;;;;;5096157;28;19904;-80
2023/05/18 12:14:58;;;;;;;;;;;27.20;35.30;;;;;;5096100;28;19999;-80
2023/05/18 12:17:40;;;;;;;;;;;27.10;35.10;;;;;;5096050;28;19904;-80
2023/05/18 12:20:07;;;;;;;;;;;26.90;35.40;;;;;;5081841;28;20004;-80
2023/05/18 12:22:33;;;;;;;;;;;26.80;35.40;;;;;;5094007;28;19904;-82
2023/05/18 12:24:58;;;;;;;;;;;26.70;35.40;;;;;;5102857;28;19908;-80
2023/05/18 12:27:25;;;;;;;;;;;26.50;35.60;;;;;;5096693;28;20003;-81
2023/05/18 12:29:51;;;;;;;;;;;26.50;35.70;;;;;;5097146;28;19908;-81
2023/05/18 12:32:17;;;;;;;;;;;26.40;36.00;;;;;;5095690;28;19908;-81
2023/05/18 12:34:43;;;;;;;;;;;26.40;36.00;;;;;;5105253;28;19954;-79
2023/05/18 12:37:08;;;;;;;;;;;26.50;36.00;;;;;;5081562;28;19939;-81
2023/05/18 12:39:35;;;;;;;;;;;26.60;36.10;;;;;;5095352;28;19904;-80
2023/05/18 12:42:13;;;;;;;;;;;26.60;36.20;;;;;;5100909;28;19918;-80
2023/05/18 12:44:40;;;;;;;;;;;26.70;36.20;;;;;;5076868;28;19981;-80
2023/05/18 12:47:05;;;;;;;;;;;26.80;36.10;;;;;;5095726;28;19911;-81
2023/05/18 12:49:35;;;;;;;;;;;26.80;36.10;;;;;;5095460;28;19949;-82
2023/05/18 12:52:06;;;;;;;;;;;26.80;36.20;;;;;;5095159;28;19919;-80
2023/05/18 12:54:32;;;;;;;;;;;26.70;36.20;;;;;;5076629;28;19964;-81
2023/05/18 12:56:59;;;;;;;;;;;26.70;36.40;;;;;;5101314;28;19998;-80
2023/05/18 12:59:27;;;;;;;;;;;26.70;36.30;;;;;;5102562;28;20334;-80
2023/05/18 13:01:53;;;;;;;;;;;26.70;36.70;;;;;;5096125;28;20407;-81
2023/05/18 13:04:19;;;;;;;;;;;26.60;36.60;;;;;;5096234;28;19911;-81
2023/05/18 13:06:45;;;;;;;;;;;26.60;36.50;;;;;;5095207;28;19920;-80
2023/05/18 13:09:11;;;;;;;;;;;26.40;36.40;;;;;;5095740;28;19934;-81
2023/05/18 13:11:37;;;;;;;;;;;26.30;36.50;;;;;;5095529;28;19911;-80
2023/05/18 13:14:04;;;;;;;;;;;26.30;36.60;;;;;;5096479;28;19916;-81
2023/05/18 13:16:30;;;;;;;;;;;26.30;36.70;;;;;;5101582;28;19958;-80
2023/05/18 13:18:59;;;;;;;;;;;26.30;36.70;;;;;;5095100;28;19904;-81
2023/05/18 13:21:25;;;;;;;;;;;26.30;36.80;;;;;;5094082;28;20266;-81
2023/05/18 13:23:50;;;;;;;;;;;26.30;36.70;;;;;;5094469;28;19923;-80
2023/05/18 13:26:17;;;;;;;;;;;26.30;36.90;;;;;;5094596;28;20356;-80
2023/05/18 13:28:43;;;;;;;;;;;26.20;36.80;;;;;;5094805;28;19995;-79
2023/05/18 13:31:09;;;;;;;;;;;26.20;37.00;;;;;;5081021;28;20319;-81
2023/05/18 13:33:34;;;;;;;;;;;26.20;37.30;;;;;;5094543;28;19931;-80
2023/05/18 13:36:00;;;;;;;;;;;26.20;37.20;;;;;;5094685;28;19912;-82
2023/05/18 13:38:26;;;;;;;;;;;26.50;37.30;;;;;;5094868;28;19940;-80
2023/05/18 13:40:51;;;;;;;;;;;27.60;37.20;;;;;;5094812;28;19904;-80
2023/05/18 13:43:17;;;;;;;;;;;29.00;36.30;;;;;;5094920;28;19919;-80
2023/05/18 13:45:43;;;;;;;;;;;30.00;34.80;;;;;;5099100;28;19995;-81
2023/05/18 13:48:08;;;;;;;;;;;30.70;34.80;;;;;;5095691;28;19966;-81
2023/05/18 13:50:34;;;;;;;;;;;31.50;34.60;;;;;;5094543;28;20005;-81
2023/05/18 13:53:00;;;;;;;;;;;32.10;33.60;;;;;;5079949;28;19947;-80
2023/05/18 13:55:26;;;;;;;;;;;32.50;33.00;;;;;;5094284;28;19990;-81
2023/05/18 13:57:51;;;;;;;;;;;32.90;32.80;;;;;;5081088;28;19911;-81
2023/05/18 14:00:19;;;;;;;;;;;33.10;32.20;;;;;;5076022;28;19904;-81